createdAt,value
2019-05-05T00:01:47.543Z,16.23
2019-05-05T00:07:37.660Z,14.17
2019-05-05T00:10:12.591Z,13.80
2019-05-05T00:15:45.006Z,14.73
2019-05-05T00:18:25.195Z,13.93
2019-05-05T00:20:59.077Z,15.33
2019-05-05T00:26:34.894Z,14.10
2019-05-05T00:34:28.027Z,15.43
2019-05-05T00:39:35.005Z,15.50
2019-05-05T00:42:07.660Z,16.47
2019-05-05T00:44:54.757Z,14.87
2019-05-05T00:47:40.840Z,14.43
2019-05-05T00:50:14.565Z,11.93
2019-05-05T00:52:55.012Z,12.03
2019-05-05T01:00:56.466Z,11.97
2019-05-05T01:03:21.928Z,12.23
2019-05-05T01:08:41.569Z,11.90
2019-05-05T01:11:48.429Z,12.13
2019-05-05T01:14:10.905Z,10.60
2019-05-05T01:19:11.004Z,9.77
2019-05-05T01:21:54.484Z,10.17
2019-05-05T01:24:26.173Z,10.53
2019-05-05T01:33:27.861Z,10.53
2019-05-05T01:35:05.317Z,9.87
2019-05-05T01:37:55.490Z,10.63
2019-05-05T01:40:36.906Z,9.73
2019-05-05T01:43:16.788Z,10.33
2019-05-05T01:45:54.718Z,10.53
2019-05-05T01:48:32.189Z,9.73
2019-05-05T01:51:49.380Z,9.83
2019-05-05T01:53:39.579Z,10.90
2019-05-05T01:59:18.408Z,10.27
2019-05-05T02:03:27.719Z,10.17
2019-05-05T02:04:28.969Z,9.63
2019-05-05T02:10:15.038Z,8.93
2019-05-05T02:12:36.186Z,9.13
2019-05-05T02:15:05.662Z,8.83
2019-05-05T02:17:58.003Z,9.07
2019-05-05T02:23:28.040Z,9.13
2019-05-05T02:26:30.237Z,8.63
2019-05-05T02:32:15.692Z,9.73
2019-05-05T02:34:21.916Z,9.07
2019-05-05T02:37:05.347Z,9.20
2019-05-05T02:39:44.842Z,8.23
2019-05-05T02:42:14.846Z,8.90
2019-05-05T02:47:45.128Z,10.17
2019-05-05T02:50:25.111Z,10.70
2019-05-05T02:53:15.643Z,10.70
2019-05-05T02:55:53.442Z,10.07
2019-05-05T02:58:29.888Z,9.83
2019-05-05T03:01:33.977Z,9.07
2019-05-05T03:07:21.956Z,8.73
2019-05-05T03:13:29.162Z,8.93
2019-05-05T03:14:34.115Z,9.13
2019-05-05T03:18:05.740Z,7.83
2019-05-05T03:20:44.392Z,7.87
2019-05-05T03:22:34.990Z,8.70
2019-05-05T03:27:54.848Z,8.17
2019-05-05T03:35:01.363Z,8.13
2019-05-05T03:36:56.381Z,8.37
2019-05-05T03:38:55.211Z,9.77
2019-05-05T03:41:31.939Z,9.57
2019-05-05T03:46:47.237Z,10.53
2019-05-05T03:53:56.396Z,10.80
2019-05-05T04:23:58.993Z,9.97
2019-05-05T04:28:30.109Z,7.70
2019-05-05T04:31:28.423Z,8.03
2019-05-05T04:39:40.149Z,9.20
2019-05-05T04:42:19.331Z,8.30
2019-05-05T04:55:07.376Z,6.67
2019-05-05T04:58:59.618Z,7.00
2019-05-05T05:01:39.991Z,6.78
2019-05-05T05:12:37.515Z,8.55
2019-05-05T05:19:08.842Z,8.15
2019-05-05T05:20:44.317Z,7.95
2019-05-05T05:23:14.513Z,7.65
2019-05-05T05:25:47.187Z,6.67
2019-05-05T05:28:19.849Z,6.30
2019-05-05T05:30:51.037Z,6.00
2019-05-05T05:33:23.861Z,4.92
2019-05-05T05:35:55.170Z,5.30
2019-05-05T05:38:27.319Z,4.90
2019-05-05T05:41:05.163Z,4.08
2019-05-05T05:44:17.611Z,4.20
2019-05-05T05:46:56.337Z,4.10
2019-05-05T05:49:35.027Z,4.05
2019-05-05T05:52:15.889Z,4.33
2019-05-05T05:54:40.903Z,3.80
2019-05-05T05:57:13.670Z,3.92
2019-05-05T05:59:45.230Z,3.85
2019-05-05T06:02:17.209Z,3.62
2019-05-05T06:04:48.923Z,4.30
2019-05-05T06:07:20.153Z,4.50
2019-05-05T06:09:51.479Z,4.10
2019-05-05T06:12:24.598Z,4.15
2019-05-05T06:14:56.013Z,3.90
2019-05-05T06:17:27.341Z,2.30
2019-05-05T06:19:59.104Z,2.50
2019-05-05T06:22:31.603Z,2.62
2019-05-05T06:25:07.226Z,3.70
2019-05-05T06:27:37.872Z,3.42
2019-05-05T06:30:10.571Z,2.15
2019-05-05T06:32:45.589Z,2.20
2019-05-05T06:35:16.656Z,2.52
2019-05-05T06:37:55.260Z,2.90
2019-05-05T06:40:38.299Z,2.30
2019-05-05T06:43:13.962Z,2.30
2019-05-05T06:45:53.484Z,2.50
2019-05-05T06:48:25.857Z,2.83
2019-05-05T06:50:57.181Z,2.20
2019-05-05T06:53:30.258Z,2.02
2019-05-05T06:56:06.492Z,2.10
2019-05-05T06:58:44.218Z,2.42
2019-05-05T07:01:14.429Z,2.40
2019-05-05T07:03:47.203Z,2.47
2019-05-05T07:06:23.902Z,1.70
2019-05-05T07:08:55.279Z,1.80
2019-05-05T07:11:26.635Z,1.90
2019-05-05T07:14:07.504Z,1.62
2019-05-05T07:16:39.767Z,1.67
2019-05-05T07:19:15.953Z,2.05
2019-05-05T07:21:49.766Z,2.45
2019-05-05T07:24:23.800Z,1.90
2019-05-05T07:26:56.988Z,1.62
2019-05-05T07:29:28.396Z,1.80
2019-05-05T07:31:59.792Z,2.10
2019-05-05T07:34:33.689Z,2.60
2019-05-05T07:37:06.147Z,1.90
2019-05-05T07:39:40.240Z,1.80
2019-05-05T07:42:13.757Z,2.98
2019-05-05T07:44:45.212Z,2.00
2019-05-05T07:47:19.598Z,1.50
2019-05-05T07:50:36.134Z,1.70
2019-05-05T07:53:14.510Z,16.97
2019-05-05T07:55:40.357Z,10.13
2019-05-05T07:58:13.932Z,2.40
2019-05-05T08:00:46.967Z,28.77
2019-05-05T08:03:20.787Z,53.17
2019-05-05T08:05:55.446Z,5.28
2019-05-05T08:08:33.369Z,9.18
2019-05-05T08:10:59.423Z,2.20
2019-05-05T08:13:33.515Z,7.92
2019-05-05T08:16:04.927Z,2.45
2019-05-05T08:18:37.769Z,2.15
2019-05-05T08:21:13.109Z,1.82
2019-05-05T08:23:44.815Z,2.08
2019-05-05T08:26:19.465Z,2.98
2019-05-05T08:28:57.958Z,2.77
2019-05-05T08:31:47.329Z,4.30
2019-05-05T08:34:18.397Z,4.97
2019-05-05T08:36:53.871Z,2.52
2019-05-05T08:39:26.849Z,2.92
2019-05-05T08:41:57.992Z,2.62
2019-05-05T08:44:35.221Z,3.75
2019-05-05T08:47:13.908Z,2.20
2019-05-05T08:49:45.970Z,1.85
2019-05-05T08:52:18.044Z,2.30
2019-05-05T08:54:53.967Z,1.90
2019-05-05T08:57:27.482Z,2.58
2019-05-05T09:00:01.475Z,2.15
2019-05-05T09:02:36.142Z,1.60
2019-05-05T09:05:07.226Z,1.90
2019-05-05T09:07:39.272Z,2.20
2019-05-05T09:10:10.721Z,1.77
2019-05-05T09:12:43.590Z,1.85
2019-05-05T09:15:14.810Z,8.33
2019-05-05T09:17:46.019Z,5.37
2019-05-05T09:20:24.199Z,5.85
2019-05-05T09:22:58.025Z,5.90
2019-05-05T09:25:34.152Z,1.75
2019-05-05T09:28:15.915Z,1.77
2019-05-05T09:30:48.751Z,1.70
2019-05-05T09:33:19.975Z,2.08
2019-05-05T09:35:51.557Z,2.00
2019-05-05T09:38:30.207Z,3.12
2019-05-05T09:41:17.351Z,3.60
2019-05-05T09:43:48.940Z,3.67
2019-05-05T09:46:20.283Z,11.73
2019-05-05T09:48:51.653Z,2.02
2019-05-05T09:51:24.180Z,1.82
2019-05-05T09:53:56.713Z,2.00
2019-05-05T09:56:27.847Z,3.80
2019-05-05T09:59:03.681Z,4.70
2019-05-05T10:01:37.812Z,2.20
2019-05-05T10:04:10.170Z,3.30
2019-05-05T10:06:47.609Z,4.50
2019-05-05T10:09:16.799Z,5.08
2019-05-05T10:11:47.923Z,1.90
2019-05-05T10:14:19.169Z,3.55
2019-05-05T10:16:50.467Z,5.42
2019-05-05T10:19:24.376Z,4.00
2019-05-05T10:21:55.779Z,5.37
2019-05-05T10:24:31.163Z,5.55
2019-05-05T10:27:01.542Z,4.22
2019-05-05T10:29:32.731Z,2.60
2019-05-05T10:32:04.556Z,3.52
2019-05-05T10:34:37.629Z,3.00
2019-05-05T10:37:08.798Z,4.03
2019-05-05T10:39:43.973Z,4.08
2019-05-05T10:42:15.505Z,4.72
2019-05-05T10:44:46.745Z,2.50
2019-05-05T10:47:18.003Z,5.35
2019-05-05T10:49:49.184Z,5.25
2019-05-05T10:52:20.239Z,3.80
2019-05-05T10:54:54.688Z,2.65
2019-05-05T10:57:26.696Z,4.80
2019-05-05T11:00:09.235Z,2.72
2019-05-05T11:02:34.701Z,3.33
2019-05-05T11:05:10.558Z,2.52
2019-05-05T11:07:42.164Z,2.98
2019-05-05T11:10:15.895Z,2.17
2019-05-05T11:12:48.463Z,2.00
2019-05-05T11:15:19.690Z,2.33
2019-05-05T11:17:50.937Z,1.60
2019-05-05T11:20:24.742Z,1.72
2019-05-05T11:22:55.364Z,1.80
2019-05-05T11:25:26.507Z,8.33
2019-05-05T11:27:58.502Z,3.45
2019-05-05T11:30:39.817Z,3.27
2019-05-05T11:33:29.666Z,3.00
2019-05-05T11:36:21.135Z,4.78
2019-05-05T11:38:53.757Z,2.70
2019-05-05T11:41:25.957Z,19.82
2019-05-05T11:43:57.025Z,6.45
2019-05-05T11:46:29.897Z,23.05
2019-05-05T11:49:01.191Z,9.58
2019-05-05T11:51:34.189Z,14.75
2019-05-05T11:54:06.913Z,25.20
2019-05-05T11:56:39.869Z,23.75
2019-05-05T11:59:14.452Z,6.12
2019-05-05T12:01:45.522Z,11.73
2019-05-05T12:04:19.613Z,10.45
2019-05-05T12:06:50.838Z,3.05
2019-05-05T12:09:25.073Z,2.10
2019-05-05T12:15:04.312Z,2.98
2019-05-05T12:17:35.793Z,2.75
2019-05-05T12:20:09.433Z,1.98
2019-05-05T12:22:42.179Z,2.00
2019-05-05T12:25:35.535Z,1.72
2019-05-05T12:28:13.712Z,3.80
2019-05-05T12:30:44.864Z,3.15
2019-05-05T12:33:16.027Z,5.60
2019-05-05T12:35:47.117Z,2.72
2019-05-05T12:38:18.933Z,2.17
2019-05-05T12:40:49.985Z,2.10
2019-05-05T12:43:21.126Z,1.87
2019-05-05T12:45:54.050Z,1.75
2019-05-05T12:48:26.750Z,1.55
2019-05-05T12:50:57.817Z,2.00
2019-05-05T12:53:28.905Z,2.33
2019-05-05T12:56:01.475Z,1.90
2019-05-05T12:58:38.631Z,3.05
2019-05-05T13:01:26.444Z,1.62
2019-05-05T13:04:00.665Z,1.87
2019-05-05T13:06:37.158Z,2.00
2019-05-05T13:09:16.441Z,2.00
2019-05-05T13:11:43.639Z,2.15
2019-05-05T13:14:17.187Z,1.80
2019-05-05T13:16:56.092Z,1.65
2019-05-05T13:19:34.554Z,1.70
2019-05-05T13:22:19.848Z,1.50
2019-05-05T13:25:15.858Z,2.08
2019-05-05T13:27:48.456Z,2.00
2019-05-05T13:30:23.596Z,1.80
2019-05-05T13:32:54.995Z,1.77
2019-05-05T13:35:29.397Z,1.10
2019-05-05T13:38:04.153Z,2.10
2019-05-05T13:40:45.952Z,1.60
2019-05-05T13:43:11.300Z,1.80
2019-05-05T13:46:01.377Z,1.77
2019-05-05T13:48:36.022Z,1.80
2019-05-05T13:51:09.771Z,1.60
2019-05-05T13:53:42.263Z,1.70
2019-05-05T13:56:15.646Z,1.50
2019-05-05T13:58:48.927Z,1.95
2019-05-05T14:01:23.731Z,1.60
2019-05-05T14:03:57.736Z,1.67
2019-05-05T14:06:28.965Z,1.60
2019-05-05T14:09:00.133Z,1.30
2019-05-05T14:11:36.206Z,1.62
2019-05-05T14:14:07.409Z,1.50
2019-05-05T14:16:40.129Z,1.50
2019-05-05T14:19:11.226Z,1.25
2019-05-05T14:21:47.107Z,1.37
2019-05-05T14:24:25.509Z,1.57
2019-05-05T14:26:56.637Z,1.45
2019-05-05T14:29:41.620Z,1.50
2019-05-05T14:32:15.400Z,1.90
2019-05-05T14:34:48.086Z,2.27
2019-05-05T14:38:00.451Z,1.42
2019-05-05T14:40:37.322Z,1.60
2019-05-05T14:43:10.115Z,2.07
2019-05-05T14:45:44.431Z,1.93
2019-05-05T14:48:17.321Z,2.60
2019-05-05T14:50:55.592Z,1.90
2019-05-05T14:53:25.842Z,2.17
2019-05-05T14:55:59.532Z,1.70
2019-05-05T14:58:31.997Z,1.50
2019-05-05T15:01:04.455Z,1.70
2019-05-05T15:03:38.082Z,1.60
2019-05-05T15:06:17.638Z,1.65
2019-05-05T15:08:54.518Z,1.80
2019-05-05T15:11:36.127Z,1.90
2019-05-05T15:14:09.815Z,2.40
2019-05-05T15:16:43.916Z,1.90
2019-05-05T15:19:17.027Z,1.70
2019-05-05T15:21:48.942Z,1.67
2019-05-05T15:24:21.873Z,1.75
2019-05-05T15:26:55.058Z,2.30
2019-05-05T15:29:25.787Z,3.27
2019-05-05T15:31:58.236Z,1.70
2019-05-05T15:37:04.094Z,1.60
2019-05-05T15:39:38.382Z,1.60
2019-05-05T15:42:12.605Z,1.70
2019-05-05T15:44:47.403Z,1.82
2019-05-05T15:47:29.541Z,1.60
2019-05-05T15:50:04.281Z,2.00
2019-05-05T15:52:38.017Z,2.90
2019-05-05T15:55:09.952Z,1.77
2019-05-05T15:57:41.255Z,2.00
2019-05-05T16:00:14.653Z,1.77
2019-05-05T16:02:47.385Z,2.10
2019-05-05T16:05:24.278Z,2.20
2019-05-05T16:08:01.859Z,3.55
2019-05-05T16:10:31.968Z,2.30
2019-05-05T16:13:04.517Z,1.95
2019-05-05T16:15:38.709Z,1.70
2019-05-05T16:18:13.767Z,1.60
2019-05-05T16:21:03.619Z,2.52
2019-05-05T16:23:40.470Z,1.72
2019-05-05T16:26:15.927Z,1.85
2019-05-05T16:28:50.841Z,2.45
2019-05-05T16:31:23.588Z,3.35
2019-05-05T16:33:54.912Z,2.10
2019-05-05T16:36:28.367Z,3.17
2019-05-05T16:38:59.544Z,3.53
2019-05-05T16:41:33.943Z,4.10
2019-05-05T16:44:05.673Z,4.50
2019-05-05T16:47:04.734Z,2.40
2019-05-05T16:49:35.482Z,4.93
2019-05-05T16:52:09.259Z,3.63
2019-05-05T16:54:41.915Z,2.30
2019-05-05T16:57:14.427Z,1.60
2019-05-05T16:59:45.515Z,2.00
2019-05-05T17:02:16.604Z,2.20
2019-05-05T17:04:47.631Z,2.43
2019-05-05T17:07:19.589Z,3.13
2019-05-05T17:09:50.653Z,2.50
2019-05-05T17:12:21.712Z,2.70
2019-05-05T17:14:57.110Z,2.00
2019-05-05T17:17:35.485Z,3.23
2019-05-05T17:20:10.091Z,2.60
2019-05-05T17:22:54.635Z,14.33
2019-05-05T17:25:25.689Z,4.30
2019-05-05T17:27:58.353Z,3.63
2019-05-05T17:30:29.597Z,5.07
2019-05-05T17:33:04.926Z,11.27
2019-05-05T17:35:35.984Z,18.37
2019-05-05T17:38:13.731Z,12.13
2019-05-05T17:40:46.462Z,4.90
2019-05-05T17:43:35.551Z,4.30
2019-05-05T17:46:08.188Z,3.43
2019-05-05T17:48:46.827Z,3.57
2019-05-05T17:51:23.466Z,4.93
2019-05-05T17:53:56.464Z,3.20
2019-05-05T17:56:29.831Z,4.00
2019-05-05T17:59:00.994Z,3.67
2019-05-05T18:01:33.619Z,3.40
2019-05-05T18:04:04.994Z,3.47
2019-05-05T18:06:56.059Z,4.97
2019-05-05T18:09:38.902Z,10.30
2019-05-05T18:12:23.691Z,8.47
2019-05-05T18:14:56.599Z,6.90
2019-05-05T18:17:27.700Z,6.97
2019-05-05T18:20:01.532Z,6.73
2019-05-05T18:22:34.307Z,8.63
2019-05-05T18:25:07.979Z,9.60
2019-05-05T18:27:40.749Z,9.13
2019-05-05T18:30:13.581Z,6.37
2019-05-05T18:32:48.829Z,6.80
2019-05-05T18:35:24.258Z,11.40
2019-05-05T18:37:57.191Z,16.43
2019-05-05T18:40:29.227Z,16.47
2019-05-05T18:43:03.918Z,15.47
2019-05-05T18:45:35.553Z,12.90
2019-05-05T18:48:06.775Z,13.27
2019-05-05T18:50:37.915Z,11.47
2019-05-05T18:53:09.035Z,11.93
2019-05-05T18:55:41.035Z,10.90
2019-05-05T18:58:12.185Z,16.97
2019-05-05T19:01:00.009Z,16.70
2019-05-05T19:03:45.056Z,17.07
2019-05-05T19:06:18.224Z,14.27
2019-05-05T19:08:57.319Z,14.90
2019-05-05T19:11:29.451Z,19.37
2019-05-05T19:14:00.596Z,18.47
2019-05-05T19:16:31.733Z,20.10
2019-05-05T19:19:04.936Z,21.93
2019-05-05T19:21:47.559Z,31.57
2019-05-05T19:24:20.500Z,38.10
2019-05-05T19:26:54.224Z,40.73
2019-05-05T19:29:25.878Z,32.03
2019-05-05T19:31:58.539Z,25.97
2019-05-05T19:34:29.750Z,25.23
2019-05-05T19:37:03.927Z,20.73
2019-05-05T19:39:36.643Z,22.00
2019-05-05T19:42:10.159Z,23.57
2019-05-05T19:44:44.323Z,21.70
2019-05-05T19:47:18.700Z,21.73
2019-05-05T19:53:24.613Z,21.30
2019-05-05T19:55:56.855Z,18.93
2019-05-05T19:58:29.441Z,17.67
2019-05-05T20:01:04.627Z,17.67
2019-05-05T20:03:36.037Z,15.23
2019-05-05T20:06:07.351Z,16.60
2019-05-05T20:08:41.391Z,17.07
2019-05-05T20:11:11.409Z,16.23
2019-05-05T20:13:44.432Z,16.03
2019-05-05T20:16:28.761Z,20.20
2019-05-05T20:18:59.835Z,21.27
2019-05-05T20:21:30.975Z,22.90
2019-05-05T20:24:03.701Z,22.87
2019-05-05T20:26:36.532Z,21.70
2019-05-05T20:29:13.786Z,19.90
2019-05-05T20:31:43.636Z,22.13
2019-05-05T20:34:16.289Z,23.87
2019-05-05T20:37:05.538Z,23.90
2019-05-05T20:39:38.329Z,21.87
2019-05-05T20:42:09.550Z,16.67
2019-05-05T20:44:40.756Z,23.30
2019-05-05T20:47:14.293Z,29.90
2019-05-05T20:49:45.531Z,31.23
2019-05-05T20:52:18.769Z,28.80
2019-05-05T20:54:56.983Z,26.97
2019-05-05T20:57:25.343Z,25.27
2019-05-05T20:59:58.710Z,26.10
2019-05-05T21:02:30.679Z,27.80
2019-05-05T21:05:03.854Z,30.00
2019-05-05T21:07:34.787Z,27.40
2019-05-05T21:10:08.816Z,25.80
2019-05-05T21:13:16.277Z,22.30
2019-05-05T21:15:48.971Z,24.27
2019-05-05T21:18:20.168Z,19.73
2019-05-05T21:20:51.365Z,22.37
2019-05-05T21:23:24.544Z,24.33
2019-05-05T21:26:04.254Z,17.80
2019-05-05T21:28:36.291Z,20.83
2019-05-05T21:31:08.934Z,21.50
2019-05-05T21:33:40.878Z,75.30
2019-05-05T21:36:11.967Z,53.63
2019-05-05T21:38:44.699Z,49.13
2019-05-05T21:41:15.775Z,47.10
2019-05-05T21:43:46.883Z,36.93
2019-05-05T21:46:18.100Z,30.47
2019-05-05T21:48:49.323Z,27.73
2019-05-05T21:51:25.020Z,19.87
2019-05-05T21:53:57.971Z,17.47
2019-05-05T21:56:30.795Z,17.37
2019-05-05T21:59:04.038Z,17.07
2019-05-05T22:01:48.773Z,18.13
2019-05-05T22:04:12.636Z,19.40
2019-05-05T22:06:43.711Z,18.67
2019-05-05T22:09:19.261Z,18.80
2019-05-05T22:11:54.336Z,18.90
2019-05-05T22:14:26.753Z,19.03
2019-05-05T22:17:04.066Z,19.47
2019-05-05T22:19:34.837Z,20.30
2019-05-05T22:22:10.703Z,20.13
2019-05-05T22:24:44.253Z,20.13
2019-05-05T22:27:16.285Z,24.03
2019-05-05T22:29:47.531Z,24.30
2019-05-05T22:32:18.886Z,23.63
2019-05-05T22:34:54.685Z,25.47
2019-05-05T22:37:28.551Z,24.83
2019-05-05T22:40:01.339Z,25.07
2019-05-05T22:42:34.216Z,25.37
2019-05-05T22:45:06.749Z,35.77
2019-05-05T22:47:38.144Z,34.90
2019-05-05T22:50:09.411Z,34.90
2019-05-05T22:52:44.703Z,28.00
2019-05-05T22:55:16.272Z,23.47
2019-05-05T22:57:47.539Z,26.13
2019-05-05T23:00:26.669Z,32.33
2019-05-05T23:03:04.444Z,32.53
2019-05-05T23:05:49.713Z,25.50
2019-05-05T23:08:24.299Z,21.57
2019-05-05T23:10:57.483Z,23.53
2019-05-05T23:13:28.859Z,21.60
2019-05-05T23:16:12.047Z,19.87
2019-05-05T23:18:44.296Z,19.67
2019-05-05T23:21:34.290Z,20.30
2019-05-05T23:24:23.884Z,19.87
2019-05-05T23:26:55.828Z,16.97
2019-05-05T23:29:27.011Z,18.10
2019-05-05T23:31:59.975Z,17.87
2019-05-05T23:34:33.841Z,18.50
2019-05-05T23:37:05.883Z,17.17
2019-05-05T23:39:37.036Z,17.50
2019-05-05T23:42:08.226Z,16.90
2019-05-05T23:44:39.423Z,15.90
2019-05-05T23:47:10.566Z,15.60
2019-05-05T23:49:41.685Z,15.30
2019-05-05T23:52:14.317Z,15.03
2019-05-05T23:54:47.032Z,15.57
2019-05-05T23:57:18.536Z,17.17
2019-05-05T23:59:49.713Z,15.63
